KHUA

Redstone AAF Airport

Redstone Arsnl Huntsville, Alabama, USA
METAR KHUA 211258Z AUTO 21008KT 10SM OVC033 20/19 A3029 RMK AO2 SLP253 T02000185
Observed Flight Rules
Feb-21 @ 12:58 UTC (23 minutes ago) Visual Flight Rules
Wind Visibility Clouds
210° at 8 knots 10 miles
  • Overcast at 3,300' AGL
Temperatures Readings
Current 20°C / 68°F
Dewpoint 19°C / 66°F
Humidity 94%
Altimeter 30.29" Hg
Pressure 1025.3 hPa
Elevation 209
METAR KHUA 211258Z AUTO 21008KT 10SM OVC033 20/19 A3029 RMK AO2 SLP253 T02000185
Observed Flight Rules
Feb-21 @ 12:58 UTC
(23 minutes ago)
VFR
Wind Visibility
210° at 8 knots 10 miles
Clouds
  • Overcast at 3,300' AGL
Temperature Dewpoint
20°C / 68°F 19°C / 66°F
Humidity Altimeter Pressure
94% 30.29" Hg 1025.3 hPa